Time;durP1;ratioP1;P1;durP2;ratioP2;P2;SDS_P1;SDS_P2;PMS_P1;PMS_P2;Temp;Humidity;BMP_temperature;BMP_pressure;BME280_temperature;BME280_humidity;BME280_pressure;Samples;Min_cycle;Max_cycle;Signal;HPM_P1;HPM_P2
2023/04/22 00:00:55;;;;;;;0.77;0.70;;;;;;;10.32;100.00;95708.78;5036007;28;20692;-70
2023/04/22 00:03:22;;;;;;;0.60;0.60;;;;;;;10.17;100.00;95713.31;5035818;28;20217;-71
2023/04/22 00:05:49;;;;;;;0.37;0.37;;;;;;;10.07;100.00;95718.06;5036138;28;20680;-69
2023/04/22 00:08:15;;;;;;;1.07;0.97;;;;;;;10.23;100.00;95712.53;5036226;28;20236;-71
2023/04/22 00:10:42;;;;;;;1.23;0.70;;;;;;;10.19;100.00;95715.75;5036030;28;20236;-71
2023/04/22 00:13:08;;;;;;;0.40;0.40;;;;;;;10.09;100.00;95716.03;5040208;28;20225;-69
2023/04/22 00:15:35;;;;;;;0.80;0.80;;;;;;;9.97;100.00;95717.53;5040676;28;20208;-70
2023/04/22 00:18:03;;;;;;;0.57;0.57;;;;;;;10.10;100.00;95714.22;5039106;28;20291;-71
2023/04/22 00:20:31;;;;;;;0.60;0.60;;;;;;;10.06;100.00;95718.25;5039763;28;20208;-70
2023/04/22 00:22:57;;;;;;;0.40;0.40;;;;;;;10.04;100.00;95713.16;5039999;28;20257;-69
2023/04/22 00:25:24;;;;;;;0.60;0.60;;;;;;;10.13;100.00;95711.22;5039862;28;20201;-71
2023/04/22 00:27:50;;;;;;;0.40;0.40;;;;;;;10.16;100.00;95718.75;5039282;28;20205;-71
2023/04/22 00:30:17;;;;;;;0.70;0.70;;;;;;;10.21;100.00;95719.81;5039510;28;20208;-70
2023/04/22 00:32:43;;;;;;;0.60;0.60;;;;;;;10.27;100.00;95721.69;5039885;28;20228;-70
2023/04/22 00:35:11;;;;;;;0.30;0.30;;;;;;;10.39;100.00;95723.66;5039706;28;20201;-70
2023/04/22 00:37:37;;;;;;;0.30;0.30;;;;;;;10.32;100.00;95727.22;5039346;28;20240;-70
2023/04/22 00:40:05;;;;;;;0.30;0.30;;;;;;;10.20;100.00;95722.66;5040088;28;20213;-70
2023/04/22 00:42:32;;;;;;;0.63;0.63;;;;;;;10.35;100.00;95725.03;5039844;28;20294;-70
2023/04/22 00:45:00;;;;;;;0.30;0.30;;;;;;;10.34;100.00;95725.22;5039646;28;20212;-70
2023/04/22 00:47:26;;;;;;;0.47;0.47;;;;;;;10.26;100.00;95727.97;5038526;28;20677;-70
2023/04/22 00:49:54;;;;;;;0.47;0.47;;;;;;;10.32;100.00;95733.31;5039547;28;20201;-70
2023/04/22 00:52:22;;;;;;;0.23;0.23;;;;;;;10.24;100.00;95724.69;5039352;28;20256;-70
2023/04/22 00:54:49;;;;;;;0.70;0.70;;;;;;;10.20;100.00;95730.56;5039305;28;20236;-70
2023/04/22 00:57:15;;;;;;;0.40;0.40;;;;;;;10.09;100.00;95731.03;5038894;28;20298;-70
2023/04/22 00:59:42;;;;;;;0.37;0.37;;;;;;;10.15;100.00;95730.28;5039129;28;20622;-70
2023/04/22 01:02:09;;;;;;;0.60;0.60;;;;;;;9.97;100.00;95733.31;5039898;28;20208;-69
2023/04/22 01:04:36;;;;;;;0.40;0.40;;;;;;;9.82;100.00;95731.69;5038709;28;20228;-70
2023/04/22 01:07:02;;;;;;;0.40;0.40;;;;;;;10.03;100.00;95729.13;5039078;28;20205;-70
2023/04/22 01:09:30;;;;;;;0.97;0.83;;;;;;;10.06;100.00;95724.31;5039817;28;20805;-69
2023/04/22 01:11:57;;;;;;;0.50;0.50;;;;;;;9.96;100.00;95722.97;5039375;28;20227;-70
2023/04/22 01:14:24;;;;;;;0.47;0.30;;;;;;;9.98;100.00;95726.22;5038777;28;20232;-70
2023/04/22 01:16:52;;;;;;;0.30;0.30;;;;;;;9.96;100.00;95718.53;5039420;28;20201;-70
2023/04/22 01:19:19;;;;;;;0.70;0.50;;;;;;;9.93;100.00;95720.69;5038878;28;20209;-70
2023/04/22 01:21:50;;;;;;;0.30;0.30;;;;;;;9.93;100.00;95726.75;5038359;28;20201;-70
2023/04/22 01:24:18;;;;;;;0.40;0.40;;;;;;;9.85;100.00;95726.88;5038210;28;20224;-70
2023/04/22 01:26:44;;;;;;;0.73;0.50;;;;;;;9.74;100.00;95722.09;5039043;28;20209;-70
2023/04/22 01:29:11;;;;;;;0.43;0.43;;;;;;;9.68;100.00;95731.72;5038046;28;20201;-70
2023/04/22 01:31:37;;;;;;;0.67;0.50;;;;;;;9.70;100.00;95733.97;5038610;28;20221;-70
2023/04/22 01:34:04;;;;;;;0.73;0.40;;;;;;;9.73;100.00;95732.78;5038435;28;20229;-70
2023/04/22 01:36:32;;;;;;;0.50;0.50;;;;;;;9.71;100.00;95729.53;5039106;28;20212;-70
2023/04/22 01:38:59;;;;;;;0.47;0.47;;;;;;;9.72;100.00;95729.38;5038277;28;20205;-70
2023/04/22 01:41:27;;;;;;;0.50;0.50;;;;;;;9.81;100.00;95733.53;5039095;28;20198;-70
2023/04/22 01:43:54;;;;;;;0.40;0.40;;;;;;;9.71;100.00;95730.34;5038557;28;20232;-70
2023/04/22 01:46:20;;;;;;;0.60;0.60;;;;;;;9.52;100.00;95730.13;5038423;28;20205;-70
2023/04/22 01:48:50;;;;;;;0.30;0.30;;;;;;;9.43;100.00;95733.00;5038336;28;20212;-70
2023/04/22 01:51:19;;;;;;;0.70;0.70;;;;;;;9.58;100.00;95728.56;5038668;28;21203;-70
2023/04/22 01:53:45;;;;;;;0.83;0.83;;;;;;;9.60;100.00;95737.91;5038246;28;20306;-72
2023/04/22 01:56:12;;;;;;;0.43;0.43;;;;;;;9.57;100.00;95734.81;5038278;28;20967;-72
2023/04/22 01:58:40;;;;;;;0.40;0.40;;;;;;;9.60;100.00;95732.63;5037807;28;20205;-72
2023/04/22 02:01:09;;;;;;;0.40;0.40;;;;;;;9.56;100.00;95736.63;5037862;28;20207;-72
2023/04/22 02:03:35;;;;;;;0.47;0.47;;;;;;;9.50;100.00;95734.72;5038721;28;20221;-71
2023/04/22 02:06:01;;;;;;;0.60;0.60;;;;;;;9.59;100.00;95738.09;5038505;28;20686;-72
2023/04/22 02:08:28;;;;;;;0.40;0.40;;;;;;;9.56;100.00;95731.38;5037080;28;20205;-72
2023/04/22 02:10:54;;;;;;;0.60;0.60;;;;;;;9.25;100.00;95729.91;5038627;28;20240;-72
2023/04/22 02:13:21;;;;;;;0.40;0.40;;;;;;;9.31;100.00;95729.22;5038108;28;20221;-71
2023/04/22 02:15:49;;;;;;;0.40;0.40;;;;;;;9.33;100.00;95724.56;5037482;28;20198;-71
2023/04/22 02:18:16;;;;;;;0.50;0.50;;;;;;;9.21;100.00;95729.47;5037506;28;20209;-72
2023/04/22 02:20:43;;;;;;;0.20;0.20;;;;;;;9.20;100.00;95727.84;5039376;28;20292;-70
2023/04/22 02:23:10;;;;;;;0.50;0.50;;;;;;;9.18;100.00;95729.03;5037280;28;20228;-70
2023/04/22 02:25:36;;;;;;;0.50;0.50;;;;;;;9.25;100.00;95724.66;5037620;28;20205;-70
2023/04/22 02:28:03;;;;;;;0.60;0.60;;;;;;;9.27;100.00;95726.13;5037556;28;20209;-69
2023/04/22 02:30:30;;;;;;;0.50;0.50;;;;;;;9.19;100.00;95720.16;5037763;28;20201;-70
2023/04/22 02:32:57;;;;;;;1.13;0.90;;;;;;;9.22;100.00;95730.28;5037139;28;20315;-70
2023/04/22 02:35:24;;;;;;;0.30;0.30;;;;;;;8.99;100.00;95726.91;5037628;28;20760;-70
2023/04/22 02:37:50;;;;;;;0.33;0.33;;;;;;;9.10;100.00;95731.75;5037215;28;20213;-70
2023/04/22 02:40:17;;;;;;;0.40;0.40;;;;;;;9.17;100.00;95722.94;5037276;28;20205;-69
2023/04/22 02:42:43;;;;;;;0.30;0.30;;;;;;;9.15;100.00;95724.94;5037754;28;20197;-70
2023/04/22 02:45:11;;;;;;;0.50;0.50;;;;;;;9.19;100.00;95731.47;5037735;28;20201;-70
2023/04/22 02:47:37;;;;;;;0.73;0.50;;;;;;;9.22;100.00;95725.03;5036919;28;20205;-70
2023/04/22 02:50:06;;;;;;;0.43;0.43;;;;;;;9.30;100.00;95719.69;5037423;28;20201;-70
2023/04/22 02:52:33;;;;;;;0.77;0.70;;;;;;;9.10;100.00;95715.97;5037239;28;20224;-70
2023/04/22 02:54:59;;;;;;;0.60;0.60;;;;;;;9.01;100.00;95722.28;5034666;28;20201;-70
2023/04/22 02:57:26;;;;;;;0.47;0.47;;;;;;;9.03;100.00;95712.41;5036690;28;20205;-69
2023/04/22 02:59:53;;;;;;;0.40;0.40;;;;;;;9.01;100.00;95711.78;5037500;28;20228;-70
2023/04/22 03:02:19;;;;;;;0.30;0.30;;;;;;;8.97;100.00;95714.94;5037254;28;20201;-70
2023/04/22 03:04:45;;;;;;;0.30;0.30;;;;;;;8.95;100.00;95712.50;5036907;28;20231;-70
2023/04/22 03:07:13;;;;;;;0.60;0.27;;;;;;;9.02;100.00;95704.72;5036624;28;20213;-70
2023/04/22 03:09:40;;;;;;;0.60;0.60;;;;;;;8.91;100.00;95711.25;5036921;28;20289;-70
2023/04/22 03:12:06;;;;;;;0.47;0.47;;;;;;;8.95;100.00;95707.25;5036457;28;20316;-70
2023/04/22 03:14:33;;;;;;;0.60;0.60;;;;;;;9.09;100.00;95704.63;5036842;28;20228;-70
2023/04/22 03:16:59;;;;;;;0.60;0.60;;;;;;;9.10;100.00;95711.53;5037310;28;20205;-70
2023/04/22 03:19:26;;;;;;;0.30;0.30;;;;;;;9.15;100.00;95710.97;5036236;28;20212;-70
2023/04/22 03:21:52;;;;;;;0.40;0.40;;;;;;;9.16;100.00;95718.69;5036243;28;20729;-70
2023/04/22 03:24:20;;;;;;;2.77;1.80;;;;;;;9.26;100.00;95715.78;5037366;28;20287;-70
2023/04/22 03:26:46;;;;;;;3.37;1.93;;;;;;;9.16;100.00;95717.88;5037049;28;20205;-70
2023/04/22 03:29:13;;;;;;;0.30;0.30;;;;;;;9.18;100.00;95713.25;5035505;28;20205;-70
2023/04/22 03:31:39;;;;;;;0.60;0.60;;;;;;;9.17;100.00;95709.00;5037289;28;20225;-71
2023/04/22 03:34:06;;;;;;;0.30;0.30;;;;;;;9.15;100.00;95710.97;5036869;28;20221;-69
2023/04/22 03:36:32;;;;;;;0.50;0.50;;;;;;;9.12;100.00;95709.50;5036034;28;20208;-70
2023/04/22 03:38:59;;;;;;;0.40;0.40;;;;;;;9.09;100.00;95709.88;5036713;28;20772;-70
2023/04/22 03:41:27;;;;;;;0.40;0.40;;;;;;;9.14;100.00;95715.41;5036074;28;20209;-70
2023/04/22 03:43:53;;;;;;;0.57;0.57;;;;;;;9.10;100.00;95710.72;5036162;28;20619;-70
2023/04/22 03:46:20;;;;;;;0.40;0.40;;;;;;;9.18;100.00;95710.63;5036671;28;20209;-69
2023/04/22 03:48:46;;;;;;;0.40;0.40;;;;;;;9.16;100.00;95704.72;5036048;28;20197;-69
2023/04/22 03:51:13;;;;;;;0.80;0.80;;;;;;;9.18;100.00;95702.75;5035716;28;20201;-69
2023/04/22 03:53:39;;;;;;;0.33;0.33;;;;;;;9.06;100.00;95698.91;5036940;28;20231;-70
2023/04/22 03:56:06;;;;;;;0.33;0.33;;;;;;;9.15;100.00;95700.44;5036427;28;20212;-70
2023/04/22 03:58:34;;;;;;;0.57;0.57;;;;;;;9.26;100.00;95705.28;5035468;28;20211;-70
2023/04/22 04:01:00;;;;;;;0.20;0.20;;;;;;;9.13;100.00;95705.09;5036359;28;20197;-70
2023/04/22 04:03:27;;;;;;;0.70;0.70;;;;;;;9.17;100.00;95709.00;5036302;28;20228;-70
2023/04/22 04:05:54;;;;;;;0.40;0.40;;;;;;;9.16;100.00;95713.44;5036397;28;20201;-71
2023/04/22 04:08:20;;;;;;;0.50;0.50;;;;;;;9.25;100.00;95719.41;5035686;28;20704;-70
2023/04/22 04:10:47;;;;;;;0.30;0.30;;;;;;;9.37;100.00;95712.72;5036700;28;20208;-70
2023/04/22 04:13:13;;;;;;;1.57;1.47;;;;;;;9.21;100.00;95712.88;5035547;28;20705;-70
2023/04/22 04:15:41;;;;;;;0.30;0.30;;;;;;;9.25;100.00;95709.72;5036201;28;20213;-70
2023/04/22 04:18:08;;;;;;;0.57;0.57;;;;;;;9.23;100.00;95710.91;5035688;28;20208;-70
2023/04/22 04:20:34;;;;;;;1.33;0.93;;;;;;;9.26;100.00;95718.41;5036294;28;20202;-70
2023/04/22 04:23:01;;;;;;;0.70;0.70;;;;;;;9.31;100.00;95719.50;5036165;28;20243;-70
2023/04/22 04:25:28;;;;;;;0.83;0.67;;;;;;;9.35;100.00;95719.94;5036268;28;20220;-70
2023/04/22 04:27:55;;;;;;;0.70;0.70;;;;;;;9.42;100.00;95715.59;5035636;28;20236;-70
2023/04/22 04:30:22;;;;;;;0.33;0.33;;;;;;;9.41;100.00;95724.50;5035615;28;20298;-70
2023/04/22 04:32:50;;;;;;;0.40;0.40;;;;;;;9.47;100.00;95714.06;5036045;28;20232;-70
2023/04/22 04:35:17;;;;;;;0.30;0.30;;;;;;;9.39;100.00;95711.50;5035547;28;20205;-70
2023/04/22 04:37:45;;;;;;;0.47;0.47;;;;;;;9.37;100.00;95720.59;5035536;28;20217;-70
2023/04/22 04:40:12;;;;;;;0.70;0.70;;;;;;;9.38;100.00;95714.31;5036585;28;20197;-69
2023/04/22 04:42:39;;;;;;;0.60;0.60;;;;;;;9.41;100.00;95717.41;5035608;28;20552;-70
2023/04/22 04:45:07;;;;;;;1.40;0.90;;;;;;;9.46;100.00;95716.88;5035297;28;20278;-70
2023/04/22 04:47:33;;;;;;;0.30;0.30;;;;;;;9.45;100.00;95723.94;5036022;28;20591;-70
2023/04/22 04:50:03;;;;;;;2.57;1.13;;;;;;;9.55;100.00;95721.84;5036088;28;20208;-70
2023/04/22 04:52:30;;;;;;;0.53;0.53;;;;;;;9.60;100.00;95724.75;5034923;28;20719;-70
2023/04/22 04:54:57;;;;;;;0.83;0.83;;;;;;;9.63;100.00;95729.63;5035334;28;20201;-70
2023/04/22 04:57:23;;;;;;;0.50;0.50;;;;;;;9.50;100.00;95731.28;5035631;28;20202;-70
2023/04/22 04:59:49;;;;;;;0.60;0.60;;;;;;;9.30;100.00;95738.09;5038402;28;20624;-70
2023/04/22 05:02:16;;;;;;;1.00;1.00;;;;;;;9.43;100.00;95746.16;5039226;28;20216;-70
2023/04/22 05:04:42;;;;;;;0.83;0.83;;;;;;;9.58;100.00;95746.97;5039734;28;20225;-69
2023/04/22 05:07:10;;;;;;;0.50;0.50;;;;;;;9.79;100.00;95743.41;5039151;28;20208;-70
2023/04/22 05:09:37;;;;;;;0.40;0.40;;;;;;;9.85;100.00;95733.94;5038436;28;20198;-70
2023/04/22 05:12:03;;;;;;;3.80;1.80;;;;;;;9.85;100.00;95734.78;5039027;28;20764;-71
2023/04/22 05:14:30;;;;;;;2.40;2.23;;;;;;;10.00;100.00;95730.31;5039415;28;20224;-70
2023/04/22 05:16:57;;;;;;;2.07;1.90;;;;;;;9.99;100.00;95723.44;5039050;28;21077;-72
2023/04/22 05:19:23;;;;;;;2.07;1.70;;;;;;;10.09;100.00;95741.56;5038601;28;20198;-70
2023/04/22 05:21:50;;;;;;;0.90;0.90;;;;;;;10.17;100.00;95738.78;5039010;28;20227;-70
2023/04/22 05:24:18;;;;;;;1.13;1.03;;;;;;;10.40;100.00;95740.28;5038762;28;20232;-70
2023/04/22 05:26:44;;;;;;;2.43;1.10;;;;;;;10.37;100.00;95741.47;5038899;28;20201;-70
2023/04/22 05:29:11;;;;;;;1.67;1.23;;;;;;;10.34;100.00;95747.09;5038376;28;20205;-71
2023/04/22 05:31:37;;;;;;;2.20;1.10;;;;;;;10.53;100.00;95749.09;5039241;28;20207;-70
2023/04/22 05:34:04;;;;;;;1.27;0.70;;;;;;;10.53;100.00;95745.66;5038784;28;20225;-71
2023/04/22 05:36:30;;;;;;;0.77;0.77;;;;;;;10.58;100.00;95743.28;5038841;28;20208;-71
2023/04/22 05:38:57;;;;;;;1.77;1.37;;;;;;;10.70;100.00;95729.38;5038440;28;20212;-71
2023/04/22 05:41:25;;;;;;;0.57;0.57;;;;;;;10.77;100.00;95734.72;5038688;28;20212;-71
2023/04/22 05:43:52;;;;;;;2.60;0.80;;;;;;;10.71;100.00;95732.88;5038382;28;20217;-70
2023/04/22 05:46:18;;;;;;;0.97;0.83;;;;;;;10.84;100.00;95733.78;5038912;28;20216;-70
2023/04/22 05:48:45;;;;;;;1.33;1.23;;;;;;;10.86;100.00;95729.13;5037995;28;20197;-71
2023/04/22 05:51:11;;;;;;;0.87;0.70;;;;;;;10.89;100.00;95731.38;5038258;28;20205;-71
2023/04/22 05:53:37;;;;;;;1.43;1.20;;;;;;;11.07;100.00;95740.47;5038801;28;20229;-72
2023/04/22 05:56:04;;;;;;;2.20;0.80;;;;;;;11.18;100.00;95734.66;5038839;28;20201;-71
2023/04/22 05:58:32;;;;;;;2.70;1.10;;;;;;;11.34;100.00;95737.00;5037079;28;20208;-70
2023/04/22 06:00:59;;;;;;;0.80;0.50;;;;;;;11.41;100.00;95732.56;5038629;28;20201;-72
2023/04/22 06:03:25;;;;;;;0.63;0.63;;;;;;;11.40;100.00;95745.94;5039418;28;20213;-70
2023/04/22 06:05:52;;;;;;;0.40;0.40;;;;;;;11.53;100.00;95752.13;5037966;28;20589;-71
2023/04/22 06:08:19;;;;;;;1.47;0.80;;;;;;;11.55;100.00;95745.66;5037215;28;20216;-71
2023/04/22 06:10:45;;;;;;;0.80;0.80;;;;;;;11.75;100.00;95745.78;5038837;28;20911;-71
2023/04/22 06:13:12;;;;;;;0.80;0.80;;;;;;;11.89;100.00;95744.81;5037746;28;20240;-71
2023/04/22 06:15:40;;;;;;;1.27;0.63;;;;;;;12.07;100.00;95747.75;5038158;28;20201;-71
2023/04/22 06:18:06;;;;;;;0.73;0.73;;;;;;;12.16;100.00;95741.28;5037981;28;20205;-70
2023/04/22 06:20:34;;;;;;;0.60;0.60;;;;;;;12.17;98.90;95752.44;5037813;28;20201;-71
2023/04/22 06:23:01;;;;;;;1.57;1.47;;;;;;;12.23;98.48;95756.13;5037095;28;20228;-72
2023/04/22 06:25:28;;;;;;;0.60;0.60;;;;;;;12.21;93.36;95758.16;5035489;28;20206;-72
2023/04/22 06:27:54;;;;;;;1.33;0.83;;;;;;;12.21;96.59;95760.78;5036229;28;20202;-71
2023/04/22 06:30:21;;;;;;;0.90;0.87;;;;;;;12.46;94.34;95757.41;5036464;28;20282;-71
2023/04/22 06:32:49;;;;;;;0.77;0.57;;;;;;;12.57;93.91;95748.88;5036388;28;20221;-71
2023/04/22 06:35:15;;;;;;;0.50;0.50;;;;;;;12.29;94.56;95750.03;5036929;28;20806;-71
2023/04/22 06:37:42;;;;;;;0.60;0.60;;;;;;;12.60;92.86;95747.69;5035376;28;20220;-71
2023/04/22 06:40:09;;;;;;;2.43;0.70;;;;;;;12.69;95.54;95749.09;5036612;28;20201;-72
2023/04/22 06:42:36;;;;;;;0.80;0.80;;;;;;;12.77;93.95;95749.75;5035991;28;20208;-72
2023/04/22 06:45:03;;;;;;;1.10;1.07;;;;;;;12.95;91.69;95757.91;5036760;28;20197;-72
2023/04/22 06:47:30;;;;;;;0.70;0.70;;;;;;;13.06;91.73;95754.66;5035679;28;20566;-72
2023/04/22 06:49:58;;;;;;;0.43;0.43;;;;;;;13.28;92.41;95756.09;5036458;28;20578;-72
2023/04/22 06:52:24;;;;;;;0.60;0.60;;;;;;;13.18;90.85;95755.69;5035816;28;20232;-72
2023/04/22 06:54:51;;;;;;;0.55;0.55;;;;;;;13.17;91.49;95759.34;5036330;28;20820;-72
2023/04/22 06:57:17;;;;;;;0.45;0.45;;;;;;;13.29;87.64;95760.34;5035400;28;20220;-72
2023/04/22 06:59:44;;;;;;;0.82;0.82;;;;;;;13.47;87.08;95758.72;5035322;28;20666;-73
2023/04/22 07:02:11;;;;;;;0.50;0.50;;;;;;;13.22;88.58;95763.00;5036025;28;20208;-72
2023/04/22 07:04:37;;;;;;;0.70;0.60;;;;;;;13.42;87.94;95763.81;5036032;28;20248;-72
2023/04/22 07:07:05;;;;;;;0.50;0.50;;;;;;;13.55;89.89;95767.22;5035879;28;20220;-72
2023/04/22 07:09:32;;;;;;;0.40;0.40;;;;;;;13.76;88.18;95768.81;5036125;28;20205;-72
2023/04/22 07:12:00;;;;;;;1.42;0.52;;;;;;;13.82;89.70;95768.81;5036209;28;20205;-73
2023/04/22 07:14:26;;;;;;;0.60;0.60;;;;;;;13.91;89.94;95761.47;5035123;28;20232;-72
2023/04/22 07:16:53;;;;;;;1.45;1.20;;;;;;;13.81;91.81;95761.91;5035101;28;20236;-72
2023/04/22 07:19:20;;;;;;;0.57;0.57;;;;;;;13.57;91.99;95759.13;5035857;28;20858;-72
2023/04/22 07:21:47;;;;;;;0.47;0.47;;;;;;;13.89;91.17;95752.94;5034438;28;20583;-72
2023/04/22 07:24:15;;;;;;;2.53;1.40;;;;;;;14.02;89.19;95761.63;5034405;28;20636;-72
2023/04/22 07:26:42;;;;;;;1.83;0.75;;;;;;;13.87;89.69;95758.41;5036571;28;20197;-72
2023/04/22 07:29:09;;;;;;;3.60;0.60;;;;;;;13.99;89.29;95754.09;5035534;28;20212;-72
2023/04/22 07:31:35;;;;;;;0.60;0.60;;;;;;;14.03;89.57;95755.31;5035090;28;20208;-72
2023/04/22 07:34:02;;;;;;;0.50;0.50;;;;;;;14.19;87.48;95760.16;5035455;28;20225;-72
2023/04/22 07:36:30;;;;;;;0.95;0.85;;;;;;;14.11;88.10;95755.91;5036478;28;20205;-72
2023/04/22 07:38:57;;;;;;;0.77;0.68;;;;;;;14.31;87.07;95747.88;5035229;28;20221;-70
2023/04/22 07:41:26;;;;;;;2.20;1.05;;;;;;;14.35;86.85;95746.44;5035454;28;21111;-72
2023/04/22 07:43:52;;;;;;;0.80;0.80;;;;;;;14.42;87.28;95745.38;5035635;28;20267;-70
2023/04/22 07:46:19;;;;;;;1.30;0.73;;;;;;;14.46;87.41;95745.75;5035423;28;20247;-72
2023/04/22 07:48:46;;;;;;;0.60;0.60;;;;;;;14.69;90.53;95745.00;5035097;28;20216;-72
2023/04/22 07:51:12;;;;;;;0.50;0.50;;;;;;;14.75;89.41;95741.50;5035865;28;20201;-72
2023/04/22 07:53:39;;;;;;;1.27;1.17;;;;;;;14.83;85.49;95749.19;5035429;28;20225;-72
2023/04/22 07:56:05;;;;;;;1.35;0.85;;;;;;;14.97;85.23;95747.25;5036234;28;21131;-72
2023/04/22 07:58:33;;;;;;;1.10;1.10;;;;;;;15.19;84.65;95746.69;5035586;28;20197;-71
2023/04/22 08:01:00;;;;;;;0.70;0.70;;;;;;;15.23;84.44;95749.75;5035664;28;20201;-72
2023/04/22 08:03:26;;;;;;;1.48;1.02;;;;;;;15.45;83.27;95749.97;5036059;28;20221;-72
2023/04/22 08:05:53;;;;;;;2.22;1.02;;;;;;;15.33;83.28;95751.69;5036002;28;20208;-72
2023/04/22 08:08:19;;;;;;;0.70;0.70;;;;;;;15.53;83.43;95743.53;5035677;28;20220;-72
2023/04/22 08:10:46;;;;;;;0.77;0.73;;;;;;;15.42;84.09;95745.06;5036366;28;20205;-72
2023/04/22 08:13:12;;;;;;;2.42;1.23;;;;;;;15.25;84.70;95745.84;5035775;28;20231;-73
2023/04/22 08:15:40;;;;;;;0.50;0.50;;;;;;;15.69;86.20;95745.63;5036224;28;20205;-72
2023/04/22 08:18:07;;;;;;;0.88;0.85;;;;;;;15.88;84.99;95748.91;5035361;28;20205;-72
2023/04/22 08:20:33;;;;;;;0.80;0.80;;;;;;;16.06;83.73;95743.59;5036282;28;20201;-72
2023/04/22 08:23:00;;;;;;;1.08;0.77;;;;;;;15.83;82.20;95741.81;5035977;28;20232;-72
2023/04/22 08:25:26;;;;;;;1.02;0.93;;;;;;;16.11;78.84;95741.06;5036327;28;20221;-71
2023/04/22 08:27:53;;;;;;;0.50;0.50;;;;;;;16.29;79.27;95742.91;5035771;28;20201;-72
2023/04/22 08:30:20;;;;;;;3.95;2.00;;;;;;;16.34;77.86;95735.88;5035651;28;20221;-70
2023/04/22 08:32:48;;;;;;;0.75;0.60;;;;;;;16.62;74.09;95738.78;5037572;28;20201;-72
2023/04/22 08:35:14;;;;;;;0.52;0.40;;;;;;;16.44;75.75;95736.16;5040174;28;20650;-71
2023/04/22 08:37:42;;;;;;;0.55;0.55;;;;;;;16.63;71.59;95732.44;5039139;28;20322;-72
2023/04/22 08:40:09;;;;;;;1.13;1.02;;;;;;;16.63;72.25;95725.25;5038481;28;20209;-72
2023/04/22 08:42:37;;;;;;;0.60;0.60;;;;;;;17.05;71.53;95718.09;5039326;28;20685;-72
2023/04/22 08:45:05;;;;;;;0.60;0.60;;;;;;;17.49;71.32;95732.53;5039789;28;20205;-72
2023/04/22 08:47:32;;;;;;;0.63;0.57;;;;;;;17.28;68.81;95722.44;5038676;28;20197;-72
2023/04/22 08:50:03;;;;;;;0.40;0.40;;;;;;;17.20;70.38;95717.41;5039316;28;20206;-72
2023/04/22 08:52:30;;;;;;;0.98;0.88;;;;;;;17.74;68.58;95722.44;5039969;28;20201;-72
2023/04/22 08:54:56;;;;;;;1.90;0.65;;;;;;;17.81;68.77;95726.59;5039300;28;20224;-73
2023/04/22 08:57:23;;;;;;;0.88;0.70;;;;;;;18.05;68.75;95728.19;5038456;28;20214;-72
2023/04/22 08:59:51;;;;;;;0.60;0.60;;;;;;;17.91;67.39;95726.84;5039272;28;20659;-73
2023/04/22 09:02:21;;;;;;;1.40;0.80;;;;;;;17.93;68.28;95723.94;5038812;28;20201;-73
2023/04/22 09:04:50;;;;;;;0.32;0.32;;;;;;;17.84;61.61;95728.00;5038483;28;20252;-72
2023/04/22 09:07:23;;;;;;;0.40;0.40;;;;;;;17.78;59.81;95736.91;5038038;28;20204;-72
2023/04/22 09:09:50;;;;;;;0.52;0.35;;;;;;;17.82;63.94;95727.44;5038618;28;20999;-73
2023/04/22 09:12:17;;;;;;;1.67;0.75;;;;;;;17.87;63.17;95730.19;5036486;28;20205;-72
2023/04/22 09:14:44;;;;;;;0.57;0.40;;;;;;;18.10;61.52;95727.47;5036724;28;20228;-72
2023/04/22 09:17:11;;;;;;;0.55;0.50;;;;;;;18.25;59.76;95717.16;5037059;28;20205;-72
2023/04/22 09:19:37;;;;;;;0.80;0.40;;;;;;;18.08;61.06;95721.59;5037021;28;20208;-72
2023/04/22 09:22:04;;;;;;;1.85;0.47;;;;;;;18.39;61.09;95709.47;5037798;28;20213;-73
2023/04/22 09:24:32;;;;;;;0.35;0.35;;;;;;;18.47;61.21;95717.09;5039108;28;20221;-72
2023/04/22 09:27:02;;;;;;;0.50;0.40;;;;;;;18.76;59.23;95716.06;5038272;28;20216;-72
2023/04/22 09:29:30;;;;;;;0.60;0.60;;;;;;;18.85;58.57;95709.28;5038146;28;20286;-72
2023/04/22 09:31:57;;;;;;;0.50;0.50;;;;;;;18.78;58.55;95724.63;5038887;28;20232;-72
2023/04/22 09:34:23;;;;;;;0.52;0.52;;;;;;;18.77;59.06;95722.19;5038884;28;20227;-72
2023/04/22 09:36:51;;;;;;;0.57;0.32;;;;;;;18.95;56.81;95720.09;5037823;28;20217;-72
2023/04/22 09:39:17;;;;;;;0.68;0.68;;;;;;;18.52;59.57;95724.38;5038141;28;20295;-72
2023/04/22 09:41:53;;;;;;;0.77;0.45;;;;;;;18.76;59.18;95720.56;5038592;28;20205;-72
2023/04/22 09:44:20;;;;;;;0.57;0.57;;;;;;;18.84;59.86;95718.31;5037649;28;20225;-72
2023/04/22 09:46:49;;;;;;;0.90;0.75;;;;;;;19.05;60.87;95715.78;5038726;28;20201;-72
2023/04/22 09:49:16;;;;;;;0.60;0.50;;;;;;;18.76;60.63;95724.06;5037921;28;20201;-72
2023/04/22 09:51:42;;;;;;;1.38;0.90;;;;;;;18.91;61.24;95724.31;5038032;28;21165;-72
2023/04/22 09:54:10;;;;;;;1.20;0.80;;;;;;;19.24;62.47;95713.72;5037880;28;20241;-72
2023/04/22 09:56:48;;;;;;;0.40;0.40;;;;;;;19.26;59.76;95722.31;5038676;28;20703;-72
2023/04/22 09:59:17;;;;;;;0.65;0.45;;;;;;;18.85;59.38;95719.97;5037953;28;20205;-72
2023/04/22 10:01:44;;;;;;;0.50;0.50;;;;;;;18.64;59.64;95717.16;5038151;28;20220;-72
2023/04/22 10:04:12;;;;;;;0.75;0.50;;;;;;;19.17;59.30;95707.69;5038476;28;20218;-72
2023/04/22 10:06:38;;;;;;;0.60;0.55;;;;;;;19.33;62.82;95713.03;5038060;28;20609;-72
2023/04/22 10:09:06;;;;;;;0.57;0.57;;;;;;;19.00;59.81;95712.19;5036790;28;20208;-72
2023/04/22 10:11:33;;;;;;;0.50;0.50;;;;;;;19.31;59.95;95706.31;5038230;28;20251;-72
2023/04/22 10:14:01;;;;;;;0.50;0.50;;;;;;;19.60;58.28;95697.97;5038211;28;20236;-73
2023/04/22 10:16:31;;;;;;;1.77;0.90;;;;;;;19.68;59.01;95706.38;5038186;28;20291;-72
2023/04/22 10:19:00;;;;;;;0.52;0.50;;;;;;;19.28;59.72;95710.28;5037654;28;20722;-72
2023/04/22 10:21:29;;;;;;;0.98;0.70;;;;;;;19.43;62.73;95707.06;5038136;28;20554;-72
2023/04/22 10:23:58;;;;;;;1.02;0.70;;;;;;;19.53;60.64;95705.34;5037796;28;20221;-72
2023/04/22 10:26:42;;;;;;;2.30;0.60;;;;;;;19.68;61.64;95698.38;5038133;28;20205;-72
2023/04/22 10:29:15;;;;;;;3.60;0.98;;;;;;;19.69;61.99;95691.16;5037429;28;20654;-71
2023/04/22 10:31:43;;;;;;;0.50;0.50;;;;;;;19.66;59.49;95680.94;5037258;28;20296;-71
2023/04/22 10:34:12;;;;;;;0.40;0.40;;;;;;;19.56;63.42;95674.66;5038106;28;20256;-72
2023/04/22 10:36:56;;;;;;;0.82;0.40;;;;;;;19.47;61.67;95684.16;5037766;28;20298;-70
2023/04/22 10:39:24;;;;;;;0.40;0.40;;;;;;;19.31;62.74;95682.28;5036711;28;20208;-71
2023/04/22 10:41:52;;;;;;;0.57;0.40;;;;;;;19.82;61.50;95680.13;5037679;28;20201;-72
2023/04/22 10:44:21;;;;;;;0.47;0.47;;;;;;;20.04;58.33;95673.75;5037895;28;20232;-73
2023/04/22 10:46:59;;;;;;;0.82;0.45;;;;;;;20.15;62.70;95678.19;5037707;28;20277;-71
2023/04/22 10:49:28;;;;;;;0.70;0.63;;;;;;;19.79;63.28;95673.41;5036688;28;20232;-72
2023/04/22 10:51:58;;;;;;;1.95;1.08;;;;;;;20.11;61.12;95666.38;5037120;28;20975;-71
2023/04/22 10:54:56;;;;;;;0.38;0.38;;;;;;;20.46;59.48;95656.84;5037604;28;20221;-72
2023/04/22 10:57:32;;;;;;;0.82;0.77;;;;;;;20.49;56.79;95663.56;5035825;28;20736;-72
2023/04/22 11:00:00;;;;;;;0.50;0.40;;;;;;;20.00;57.93;95667.28;5037193;28;20200;-71
2023/04/22 11:02:26;;;;;;;0.35;0.30;;;;;;;20.29;57.08;95671.41;5037231;28;20215;-71
2023/04/22 11:05:19;;;;;;;0.32;0.32;;;;;;;20.68;57.66;95662.19;5037233;28;20217;-72
2023/04/22 11:07:48;;;;;;;0.30;0.28;;;;;;;20.67;57.98;95664.06;5036492;28;21057;-73
2023/04/22 11:10:31;;;;;;;0.75;0.50;;;;;;;20.50;58.94;95667.88;5036140;28;21340;-72
2023/04/22 11:12:58;;;;;;;0.70;0.32;;;;;;;20.60;57.54;95666.13;5037372;28;20221;-72
2023/04/22 11:15:26;;;;;;;1.85;0.40;;;;;;;20.82;58.24;95660.75;5037097;28;20220;-70
2023/04/22 11:17:54;;;;;;;0.57;0.50;;;;;;;21.05;59.99;95651.31;5036349;28;20208;-70
2023/04/22 11:20:21;;;;;;;1.10;0.52;;;;;;;20.90;60.15;95651.19;5036582;28;21026;-71
2023/04/22 11:22:50;;;;;;;0.43;0.40;;;;;;;21.08;59.83;95650.81;5035947;28;20204;-72
2023/04/22 11:25:17;;;;;;;0.60;0.60;;;;;;;21.29;58.88;95647.22;5034411;28;20629;-72
2023/04/22 11:27:44;;;;;;;0.40;0.40;;;;;;;21.29;61.28;95647.22;5035812;28;20229;-72
2023/04/22 11:30:13;;;;;;;0.50;0.50;;;;;;;21.73;58.60;95649.41;5035736;28;20232;-72
2023/04/22 11:32:43;;;;;;;0.43;0.43;;;;;;;21.88;59.36;95648.69;5036276;28;20232;-72